Time;durP1;ratioP1;P1;durP2;ratioP2;P2;SDS_P1;SDS_P2;PMS_P1;PMS_P2;Temp;Humidity;BMP_temperature;BMP_pressure;BME280_temperature;BME280_humidity;BME280_pressure;Samples;Min_cycle;Max_cycle;Signal;HPM_P1;HPM_P2
2023/03/03 00:01:40;;;;;;;52.47;26.30;;;;;;;;;;6303378;22;20555;-89
2023/03/03 00:04:45;;;;;;;46.00;26.17;;;;;;;;;;6295784;22;20501;-89
2023/03/03 00:07:49;;;;;;;50.63;26.73;;;;;;;;;;6296216;22;20556;-88
2023/03/03 00:10:54;;;;;;;49.30;26.70;;;;;;;;;;6296571;22;20504;-91
2023/03/03 00:13:58;;;;;;;54.80;28.50;;;;;;;;;;6313579;22;20504;-89
2023/03/03 00:17:21;;;;;;;51.37;26.40;;;;;;;;;;6295812;22;20497;-89
2023/03/03 00:20:30;;;;;;;52.20;27.97;;;;;;;;;;6286264;22;20575;-89
2023/03/03 00:23:37;;;;;;;52.97;27.43;;;;;;;;;;6295972;22;21024;-89
2023/03/03 00:26:49;;;;;;;49.70;26.63;;;;;;;;;;6296703;22;20556;-88
2023/03/03 00:29:59;;;;;;;53.77;26.07;;;;;;;;;;6307317;22;20579;-88
2023/03/03 00:33:21;;;;;;;51.23;27.50;;;;;;;;;;6295600;22;20500;-89
2023/03/03 00:36:38;;;;;;;52.13;27.37;;;;;;;;;;6294896;22;20500;-90
2023/03/03 00:39:42;;;;;;;50.23;26.20;;;;;;;;;;6289706;22;20679;-89
2023/03/03 00:42:50;;;;;;;51.17;26.13;;;;;;;;;;6295913;22;20504;-92
2023/03/03 00:45:55;;;;;;;53.33;27.60;;;;;;;;;;6313785;22;20500;-88
2023/03/03 00:48:59;;;;;;;54.33;26.07;;;;;;;;;;6294138;22;20572;-88
2023/03/03 00:52:14;;;;;;;48.20;26.47;;;;;;;;;;6297987;22;20504;-88
2023/03/03 00:55:19;;;;;;;54.97;27.33;;;;;;;;;;6298353;22;20538;-88
2023/03/03 00:58:24;;;;;;;50.03;26.73;;;;;;;;;;6297176;22;20500;-89
2023/03/03 01:01:29;;;;;;;48.83;25.57;;;;;;;;;;6297918;22;20500;-88
2023/03/03 01:04:33;;;;;;;52.33;27.30;;;;;;;;;;6297835;22;20504;-88
2023/03/03 01:07:37;;;;;;;53.13;28.17;;;;;;;;;;6297447;22;20568;-88
2023/03/03 01:10:49;;;;;;;51.17;27.27;;;;;;;;;;6298023;22;20504;-88
2023/03/03 01:13:53;;;;;;;53.57;27.63;;;;;;;;;;6287664;22;20551;-91
2023/03/03 01:16:58;;;;;;;51.10;26.33;;;;;;;;;;6297647;22;20500;-89
2023/03/03 01:20:02;;;;;;;58.57;28.27;;;;;;;;;;6289614;22;20575;-92
2023/03/03 01:23:07;;;;;;;59.73;28.17;;;;;;;;;;6297950;22;20504;-89
2023/03/03 01:26:11;;;;;;;57.27;28.10;;;;;;;;;;6286828;22;20551;-91
2023/03/03 01:29:16;;;;;;;55.33;28.73;;;;;;;;;;6328094;22;20575;-89
2023/03/03 01:32:20;;;;;;;57.10;28.63;;;;;;;;;;6304564;22;20555;-91
2023/03/03 01:35:24;;;;;;;59.43;28.73;;;;;;;;;;6297253;22;20499;-89
2023/03/03 01:38:29;;;;;;;55.73;28.97;;;;;;;;;;6287486;22;20571;-89
2023/03/03 01:41:34;;;;;;;58.13;27.17;;;;;;;;;;6314741;22;20504;-88
2023/03/03 01:44:38;;;;;;;54.17;27.30;;;;;;;;;;6305042;22;20551;-88
2023/03/03 01:47:51;;;;;;;55.40;27.77;;;;;;;;;;6286980;22;20598;-91
2023/03/03 01:51:00;;;;;;;59.40;28.43;;;;;;;;;;6314909;22;20504;-89
2023/03/03 01:54:16;;;;;;;60.83;27.63;;;;;;;;;;6314888;22;20500;-89
2023/03/03 01:57:28;;;;;;;54.57;29.73;;;;;;;;;;6296843;22;20795;-89
2023/03/03 02:00:35;;;;;;;52.50;26.83;;;;;;;;;;6286957;22;20571;-89
2023/03/03 02:03:40;;;;;;;51.23;25.80;;;;;;;;;;6297762;22;20505;-88
2023/03/03 02:06:50;;;;;;;58.07;28.07;;;;;;;;;;6297349;22;20556;-89
2023/03/03 02:10:11;;;;;;;58.20;26.47;;;;;;;;;;6289151;22;20579;-89
2023/03/03 02:13:15;;;;;;;56.83;26.90;;;;;;;;;;6297104;22;20500;-89
2023/03/03 02:16:19;;;;;;;55.20;26.20;;;;;;;;;;6297127;22;20504;-88
2023/03/03 02:19:50;;;;;;;52.97;26.77;;;;;;;;;;6287473;22;20575;-88
2023/03/03 02:23:06;;;;;;;55.37;26.03;;;;;;;;;;6297390;22;20492;-91
2023/03/03 02:26:31;;;;;;;55.43;26.10;;;;;;;;;;6314551;22;21029;-88
2023/03/03 02:29:40;;;;;;;53.30;26.23;;;;;;;;;;6291735;22;20580;-91
2023/03/03 02:32:45;;;;;;;55.27;27.27;;;;;;;;;;6351214;22;20505;-90
2023/03/03 02:35:51;;;;;;;50.70;24.83;;;;;;;;;;6321588;22;20555;-88
2023/03/03 02:39:03;;;;;;;55.20;26.20;;;;;;;;;;6288053;22;20583;-89
2023/03/03 02:42:22;;;;;;;56.37;26.67;;;;;;;;;;6314475;22;20501;-88
2023/03/03 02:45:31;;;;;;;46.03;25.07;;;;;;;;;;6298242;22;20795;-89
2023/03/03 02:48:35;;;;;;;54.97;27.33;;;;;;;;;;6294393;22;20611;-89
2023/03/03 02:51:40;;;;;;;56.13;27.80;;;;;;;;;;6296270;22;20504;-88
2023/03/03 02:54:45;;;;;;;54.63;27.50;;;;;;;;;;6296668;22;20500;-91
2023/03/03 02:57:49;;;;;;;51.27;27.10;;;;;;;;;;6313811;22;21016;-89
2023/03/03 03:00:54;;;;;;;56.03;26.80;;;;;;;;;;6296137;22;21033;-89
2023/03/03 03:04:00;;;;;;;49.50;25.63;;;;;;;;;;6296575;22;21044;-89
2023/03/03 03:07:05;;;;;;;49.67;26.03;;;;;;;;;;6296040;22;20556;-89
2023/03/03 03:10:11;;;;;;;51.03;25.73;;;;;;;;;;6305337;22;20575;-88
2023/03/03 03:13:17;;;;;;;58.43;27.00;;;;;;;;;;6296565;22;20504;-88
2023/03/03 03:16:22;;;;;;;53.60;25.93;;;;;;;;;;6296802;22;20501;-89
2023/03/03 03:19:27;;;;;;;50.97;26.87;;;;;;;;;;6304041;22;20575;-88
2023/03/03 03:22:31;;;;;;;53.43;25.60;;;;;;;;;;6286087;22;20555;-89
2023/03/03 03:25:44;;;;;;;58.50;27.43;;;;;;;;;;6296020;22;20504;-89
2023/03/03 03:28:51;;;;;;;48.27;25.60;;;;;;;;;;6310822;22;20611;-89
2023/03/03 03:31:56;;;;;;;52.20;26.80;;;;;;;;;;6286355;22;20556;-89
2023/03/03 03:35:00;;;;;;;52.33;25.97;;;;;;;;;;6296257;22;20500;-89
2023/03/03 03:38:04;;;;;;;52.67;27.90;;;;;;;;;;6292219;22;20571;-89
2023/03/03 03:41:10;;;;;;;62.80;28.17;;;;;;;;;;6295695;22;20500;-88
2023/03/03 03:44:15;;;;;;;53.33;26.50;;;;;;;;;;6303127;22;20870;-88
2023/03/03 03:47:19;;;;;;;54.77;27.40;;;;;;;;;;6303814;22;20599;-89
2023/03/03 03:50:24;;;;;;;52.80;26.10;;;;;;;;;;6285242;22;20583;-89
2023/03/03 03:53:28;;;;;;;59.20;29.57;;;;;;;;;;6295469;22;20504;-88
2023/03/03 03:56:32;;;;;;;56.07;28.40;;;;;;;;;;6295359;22;20500;-89
2023/03/03 03:59:38;;;;;;;62.83;28.73;;;;;;;;;;6289963;22;20575;-89
2023/03/03 04:02:42;;;;;;;59.93;29.63;;;;;;;;;;6295773;22;20500;-89
2023/03/03 04:05:52;;;;;;;47.33;25.37;;;;;;;;;;6295887;22;20504;-89
2023/03/03 04:08:57;;;;;;;60.00;27.50;;;;;;;;;;6285154;22;20611;-89
2023/03/03 04:12:03;;;;;;;60.43;30.03;;;;;;;;;;6295922;22;20504;-89
2023/03/03 04:15:10;;;;;;;57.93;29.23;;;;;;;;;;6295889;22;20500;-89
2023/03/03 04:18:15;;;;;;;59.00;27.27;;;;;;;;;;6295926;22;20504;-89
2023/03/03 04:21:20;;;;;;;58.60;28.70;;;;;;;;;;6312942;22;20500;-89
2023/03/03 04:24:24;;;;;;;58.67;29.33;;;;;;;;;;6295576;22;20815;-89
2023/03/03 04:27:34;;;;;;;61.00;29.60;;;;;;;;;;6295872;22;20556;-90
2023/03/03 04:30:39;;;;;;;56.33;28.30;;;;;;;;;;6302258;22;20571;-89
2023/03/03 04:33:43;;;;;;;64.13;29.17;;;;;;;;;;6295518;22;20500;-89
2023/03/03 04:36:47;;;;;;;62.13;27.33;;;;;;;;;;6285041;22;20610;-89
2023/03/03 04:39:51;;;;;;;57.87;29.83;;;;;;;;;;6288376;22;20575;-89
2023/03/03 04:42:55;;;;;;;58.67;28.70;;;;;;;;;;6313620;22;21016;-89
2023/03/03 04:46:01;;;;;;;60.40;29.97;;;;;;;;;;6295434;22;20501;-89
2023/03/03 04:49:07;;;;;;;59.23;28.77;;;;;;;;;;6291292;22;20611;-88
2023/03/03 04:52:12;;;;;;;59.00;28.30;;;;;;;;;;6295576;22;21040;-89
2023/03/03 04:55:16;;;;;;;59.37;29.17;;;;;;;;;;6284879;22;20555;-88
2023/03/03 04:58:22;;;;;;;56.47;28.70;;;;;;;;;;6285468;22;20551;-88
2023/03/03 05:01:27;;;;;;;62.67;29.70;;;;;;;;;;6302282;22;20551;-88
2023/03/03 05:04:32;;;;;;;59.73;29.80;;;;;;;;;;6295261;22;20807;-88
2023/03/03 05:07:37;;;;;;;56.47;28.13;;;;;;;;;;6295267;22;20551;-89
2023/03/03 05:10:41;;;;;;;59.53;29.20;;;;;;;;;;6312879;22;20503;-89
2023/03/03 05:13:45;;;;;;;56.90;28.90;;;;;;;;;;6312248;22;20520;-88
2023/03/03 05:16:49;;;;;;;61.57;29.17;;;;;;;;;;6313037;22;20504;-88
2023/03/03 05:19:56;;;;;;;61.57;29.60;;;;;;;;;;6305869;22;20572;-88
2023/03/03 05:23:00;;;;;;;58.33;28.80;;;;;;;;;;6312828;22;20500;-88
2023/03/03 05:26:05;;;;;;;60.77;29.63;;;;;;;;;;6295118;22;20803;-89
2023/03/03 05:29:09;;;;;;;54.87;27.83;;;;;;;;;;6290884;22;20607;-88
2023/03/03 05:32:14;;;;;;;63.67;31.63;;;;;;;;;;6295870;22;20500;-88
2023/03/03 05:35:19;;;;;;;51.40;27.30;;;;;;;;;;6297097;22;20500;-91
2023/03/03 05:38:24;;;;;;;61.17;29.50;;;;;;;;;;6308355;22;20559;-91
2023/03/03 05:41:29;;;;;;;59.17;29.20;;;;;;;;;;6297289;22;20504;-90
2023/03/03 05:44:33;;;;;;;56.80;28.43;;;;;;;;;;6286607;22;21100;-90
2023/03/03 05:47:38;;;;;;;59.03;27.97;;;;;;;;;;6315106;22;20500;-90
2023/03/03 05:50:42;;;;;;;57.30;27.97;;;;;;;;;;6297518;22;20504;-92
2023/03/03 05:53:46;;;;;;;58.10;28.07;;;;;;;;;;6297721;22;20500;-90
2023/03/03 05:56:51;;;;;;;53.13;28.40;;;;;;;;;;6333059;22;20500;-91
2023/03/03 05:59:54;;;;;;;56.50;29.23;;;;;;;;;;6287494;22;20886;-91
2023/03/03 06:02:59;;;;;;;52.63;26.57;;;;;;;;;;6287122;22;21092;-91
2023/03/03 06:06:03;;;;;;;61.47;29.10;;;;;;;;;;6305337;22;20547;-91
2023/03/03 06:09:07;;;;;;;56.33;28.47;;;;;;;;;;6287510;22;20607;-91
2023/03/03 06:12:11;;;;;;;60.27;28.87;;;;;;;;;;6297966;22;20504;-91
2023/03/03 06:15:15;;;;;;;56.90;28.17;;;;;;;;;;6297357;22;20500;-91
2023/03/03 06:18:19;;;;;;;55.07;28.47;;;;;;;;;;6332433;22;20803;-91
2023/03/03 06:21:23;;;;;;;50.03;26.63;;;;;;;;;;6314937;22;20500;-91
2023/03/03 06:24:30;;;;;;;54.97;28.20;;;;;;;;;;6297341;22;20504;-91
2023/03/03 06:27:34;;;;;;;59.67;28.37;;;;;;;;;;6314898;22;20811;-90
2023/03/03 06:30:39;;;;;;;59.70;28.83;;;;;;;;;;6286707;22;20563;-91
2023/03/03 06:33:43;;;;;;;56.10;29.00;;;;;;;;;;6286860;22;20560;-91
2023/03/03 06:36:47;;;;;;;54.37;27.90;;;;;;;;;;6296516;22;21023;-90
2023/03/03 06:39:52;;;;;;;61.80;29.27;;;;;;;;;;6286751;22;20575;-91
2023/03/03 06:42:56;;;;;;;65.87;31.33;;;;;;;;;;6303456;22;20874;-89
2023/03/03 06:46:00;;;;;;;59.27;29.67;;;;;;;;;;6313810;22;20500;-89
2023/03/03 06:49:03;;;;;;;53.03;28.10;;;;;;;;;;6310603;22;20611;-89
2023/03/03 06:52:12;;;;;;;57.63;28.50;;;;;;;;;;6296448;22;20504;-90
2023/03/03 06:55:22;;;;;;;56.00;28.50;;;;;;;;;;6297323;22;20803;-90
2023/03/03 06:58:29;;;;;;;57.27;28.37;;;;;;;;;;6295345;22;20501;-89
2023/03/03 07:01:36;;;;;;;55.93;28.17;;;;;;;;;;6314591;22;20505;-89
2023/03/03 07:04:40;;;;;;;54.03;27.70;;;;;;;;;;6296459;22;20500;-89
2023/03/03 07:07:44;;;;;;;50.07;26.67;;;;;;;;;;6313971;22;20803;-90
2023/03/03 07:10:52;;;;;;;54.80;26.63;;;;;;;;;;6305051;22;21084;-90
2023/03/03 07:13:57;;;;;;;56.93;28.83;;;;;;;;;;6287045;22;20556;-89
2023/03/03 07:17:04;;;;;;;52.63;27.57;;;;;;;;;;6287746;22;20165;-88
2023/03/03 07:20:17;;;;;;;57.97;27.77;;;;;;;;;;6307280;22;20185;-88
2023/03/03 07:23:41;;;;;;;55.57;28.40;;;;;;;;;;6287709;22;20169;-90
2023/03/03 07:26:45;;;;;;;51.50;26.97;;;;;;;;;;6297010;22;20158;-90
2023/03/03 07:29:52;;;;;;;50.10;27.17;;;;;;;;;;6307626;22;20508;-90
2023/03/03 07:32:58;;;;;;;56.33;29.87;;;;;;;;;;6313907;22;20149;-90
2023/03/03 07:36:05;;;;;;;56.67;29.57;;;;;;;;;;6313902;22;20154;-92
2023/03/03 07:39:34;;;;;;;57.03;29.60;;;;;;;;;;6286703;22;20197;-91
2023/03/03 07:42:39;;;;;;;60.33;29.97;;;;;;;;;;6299476;22;20149;-86
2023/03/03 07:55:25;;;;;;;47.53;25.00;;;;;;;;;;6317878;22;20149;-93
2023/03/03 07:59:34;;;;;;;;;;;;;;;;;;;;;
2023/03/03 08:03:28;;;;;;;48.63;27.07;;;;;;;;;;6334756;22;20157;-90
2023/03/03 08:06:35;;;;;;;45.77;27.03;;;;;;;;;;6284949;22;20166;-91
2023/03/03 08:09:46;;;;;;;45.30;25.80;;;;;;;;;;6289393;22;20197;-90
2023/03/03 08:12:50;;;;;;;45.10;25.37;;;;;;;;;;6313732;22;20587;-91
2023/03/03 08:16:08;;;;;;;58.07;31.37;;;;;;;;;;6313163;22;20149;-90
2023/03/03 08:19:17;;;;;;;49.67;27.77;;;;;;;;;;6292005;22;20181;-91
2023/03/03 08:22:32;;;;;;;45.93;23.47;;;;;;;;;;6297177;22;20154;-91
2023/03/03 08:25:37;;;;;;;45.13;25.00;;;;;;;;;;6295535;22;20456;-91
2023/03/03 08:28:42;;;;;;;42.27;24.43;;;;;;;;;;6310851;22;20200;-90
2023/03/03 08:31:47;;;;;;;42.80;24.20;;;;;;;;;;6285403;22;20169;-90
2023/03/03 08:34:51;;;;;;;43.50;24.27;;;;;;;;;;6295156;22;20146;-91
2023/03/03 08:37:54;;;;;;;40.80;24.37;;;;;;;;;;6291626;22;20172;-91
2023/03/03 08:40:59;;;;;;;36.67;20.93;;;;;;;;;;6295592;22;20452;-86
2023/03/03 08:44:06;;;;;;;43.17;24.93;;;;;;;;;;6297942;22;20150;-91
2023/03/03 08:47:10;;;;;;;43.60;25.23;;;;;;;;;;6295548;22;20153;-90
2023/03/03 08:50:16;;;;;;;43.93;24.87;;;;;;;;;;6286799;22;20189;-90
2023/03/03 08:53:21;;;;;;;46.67;25.57;;;;;;;;;;6295527;22;20146;-91
2023/03/03 08:56:25;;;;;;;47.23;24.83;;;;;;;;;;6295735;22;20153;-91
2023/03/03 08:59:37;;;;;;;43.27;23.83;;;;;;;;;;6290568;22;20185;-92
2023/03/03 09:02:42;;;;;;;44.30;25.60;;;;;;;;;;6295984;22;20453;-91
2023/03/03 09:05:47;;;;;;;42.10;24.43;;;;;;;;;;6285891;22;20165;-91
2023/03/03 09:09:31;;;;;;;46.13;24.40;;;;;;;;;;6313263;22;20194;-91
2023/03/03 09:12:39;;;;;;;46.17;24.57;;;;;;;;;;6297373;22;20145;-91
2023/03/03 09:15:45;;;;;;;39.90;24.73;;;;;;;;;;6297979;22;20150;-92
2023/03/03 09:18:49;;;;;;;42.73;25.23;;;;;;;;;;6295428;22;20181;-92
2023/03/03 09:21:56;;;;;;;43.40;25.17;;;;;;;;;;6297815;22;20456;-91
2023/03/03 09:25:01;;;;;;;41.97;25.50;;;;;;;;;;6298066;22;20154;-91
2023/03/03 09:28:27;;;;;;;40.63;26.17;;;;;;;;;;6297799;22;20154;-91
2023/03/03 09:31:38;;;;;;;40.83;25.83;;;;;;;;;;6297857;22;20150;-92
2023/03/03 09:34:42;;;;;;;42.53;24.47;;;;;;;;;;6297775;22;20154;-91
2023/03/03 09:37:49;;;;;;;42.63;24.43;;;;;;;;;;6294041;22;20173;-91
2023/03/03 09:41:24;;;;;;;42.90;24.57;;;;;;;;;;6286815;22;20166;-91
2023/03/03 09:44:31;;;;;;;44.10;24.33;;;;;;;;;;6316543;22;20150;-92
2023/03/03 09:48:13;;;;;;;40.40;24.47;;;;;;;;;;6286723;22;20480;-91
2023/03/03 09:51:36;;;;;;;44.83;24.50;;;;;;;;;;6297323;22;20584;-92
2023/03/03 09:54:40;;;;;;;38.67;23.10;;;;;;;;;;6297123;22;20150;-91
2023/03/03 09:58:12;;;;;;;39.47;24.20;;;;;;;;;;6297697;22;20154;-91
2023/03/03 10:01:26;;;;;;;37.87;23.63;;;;;;;;;;6315147;22;20149;-91
2023/03/03 10:04:49;;;;;;;38.60;22.70;;;;;;;;;;6297351;22;20150;-91
2023/03/03 10:08:02;;;;;;;40.47;23.40;;;;;;;;;;6296816;22;20146;-91
2023/03/03 10:11:47;;;;;;;38.33;23.30;;;;;;;;;;6297588;22;20178;-91
2023/03/03 10:15:16;;;;;;;42.40;24.47;;;;;;;;;;6245136;22;20170;-92
2023/03/03 10:18:28;;;;;;;39.87;24.80;;;;;;;;;;6296134;22;20150;-91
2023/03/03 10:21:57;;;;;;;41.93;23.40;;;;;;;;;;6296727;22;20146;-91
2023/03/03 10:25:25;;;;;;;59.30;37.97;;;;;;;;;;6297449;22;20149;-91
2023/03/03 10:28:59;;;;;;;47.90;29.40;;;;;;;;;;6295962;22;20595;-92
2023/03/03 10:32:39;;;;;;;40.90;25.73;;;;;;;;;;6298309;22;20150;-92
2023/03/03 10:36:18;;;;;;;129.90;69.13;;;;;;;;;;6297029;22;20150;-92
2023/03/03 10:39:59;;;;;;;62.60;35.03;;;;;;;;;;6288817;22;20664;-93
2023/03/03 10:47:42;;;;;;;38.10;22.60;;;;;;;;;;6339139;22;20149;-92
2023/03/03 10:50:50;;;;;;;39.73;23.67;;;;;;;;;;6332182;22;20188;-92
2023/03/03 10:54:00;;;;;;;35.23;22.57;;;;;;;;;;6296668;22;20175;-91
2023/03/03 10:57:57;;;;;;;38.40;24.10;;;;;;;;;;6296171;22;20164;-91
2023/03/03 11:01:29;;;;;;;43.90;26.47;;;;;;;;;;6280369;22;20169;-91
2023/03/03 11:04:43;;;;;;;37.07;23.47;;;;;;;;;;6296263;22;20160;-92
2023/03/03 11:07:56;;;;;;;36.10;21.97;;;;;;;;;;6296063;22;20154;-92
2023/03/03 11:11:08;;;;;;;38.27;22.43;;;;;;;;;;6296528;22;20506;-90
2023/03/03 11:14:31;;;;;;;33.93;21.87;;;;;;;;;;6296585;22;20474;-89
2023/03/03 11:17:56;;;;;;;33.63;23.00;;;;;;;;;;6296719;22;20160;-91
2023/03/03 11:21:37;;;;;;;38.37;23.13;;;;;;;;;;6295878;22;20150;-91
2023/03/03 11:24:52;;;;;;;38.97;24.57;;;;;;;;;;6283239;22;20187;-91
2023/03/03 11:28:16;;;;;;;34.93;23.23;;;;;;;;;;6296519;22;20160;-91
2023/03/03 11:31:25;;;;;;;35.80;22.80;;;;;;;;;;6295546;22;20191;-91
2023/03/03 11:34:52;;;;;;;41.63;23.40;;;;;;;;;;6296149;22;20156;-90
2023/03/03 11:38:20;;;;;;;61.37;24.27;;;;;;;;;;6309224;22;20232;-89
2023/03/03 11:41:51;;;;;;;37.83;24.30;;;;;;;;;;6331296;22;20484;-89
2023/03/03 11:45:01;;;;;;;39.50;23.73;;;;;;;;;;6285301;22;20176;-90
2023/03/03 11:48:21;;;;;;;35.67;23.33;;;;;;;;;;6295486;22;20156;-89
2023/03/03 11:51:33;;;;;;;38.73;23.80;;;;;;;;;;6295856;22;20185;-89
2023/03/03 11:54:56;;;;;;;36.90;23.10;;;;;;;;;;6295140;22;20153;-89
2023/03/03 11:58:27;;;;;;;38.97;23.87;;;;;;;;;;6295272;22;20154;-89
2023/03/03 12:01:45;;;;;;;34.77;22.20;;;;;;;;;;6295859;22;20466;-89
2023/03/03 12:05:07;;;;;;;36.63;22.70;;;;;;;;;;6313169;22;20150;-90
2023/03/03 12:08:33;;;;;;;40.57;23.50;;;;;;;;;;6295436;22;20154;-89
2023/03/03 12:12:19;;;;;;;40.83;24.00;;;;;;;;;;6140529;23;20213;-81
2023/03/03 12:15:47;;;;;;;37.37;23.17;;;;;;;;;;6133643;23;20160;-82
2023/03/03 12:20:03;;;;;;;34.57;23.43;;;;;;;;;;6105216;23;20156;-81
2023/03/03 12:23:57;;;;;;;40.43;24.30;;;;;;;;;;6111085;23;20178;-83
2023/03/03 12:27:33;;;;;;;35.73;23.77;;;;;;;;;;6117621;23;20198;-81
2023/03/03 12:31:13;;;;;;;38.37;22.60;;;;;;;;;;6105065;23;20195;-81
2023/03/03 12:34:43;;;;;;;34.40;22.43;;;;;;;;;;6122197;23;20163;-81
2023/03/03 12:42:01;;;;;;;33.23;22.73;;;;;;;;;;6123888;23;20492;-81
2023/03/03 12:45:36;;;;;;;35.20;22.27;;;;;;;;;;6108030;23;20155;-82
2023/03/03 12:48:53;;;;;;;34.30;21.60;;;;;;;;;;6098482;23;20194;-81
2023/03/03 12:52:39;;;;;;;32.67;22.83;;;;;;;;;;6113218;23;20183;-80
2023/03/03 12:56:42;;;;;;;36.20;21.27;;;;;;;;;;6125901;23;20158;-81
2023/03/03 13:00:27;;;;;;;69.50;24.30;;;;;;;;;;6107483;23;20182;-82
2023/03/03 13:04:02;;;;;;;39.27;22.73;;;;;;;;;;6094175;23;20157;-82
2023/03/03 13:07:39;;;;;;;32.63;21.33;;;;;;;;;;6121659;23;20202;-81
2023/03/03 13:10:59;;;;;;;35.10;23.53;;;;;;;;;;6128970;23;20212;-82
2023/03/03 13:14:32;;;;;;;33.47;22.03;;;;;;;;;;6124227;23;20163;-82
2023/03/03 13:18:22;;;;;;;43.87;23.77;;;;;;;;;;6118757;23;20666;-82
2023/03/03 13:22:01;;;;;;;37.47;23.37;;;;;;;;;;6119340;23;20511;-80
2023/03/03 13:25:27;;;;;;;34.07;22.83;;;;;;;;;;6107249;23;20180;-82
2023/03/03 13:29:03;;;;;;;36.63;22.60;;;;;;;;;;6116018;23;20533;-82
2023/03/03 13:32:42;;;;;;;40.40;22.97;;;;;;;;;;6122676;23;20165;-81
2023/03/03 13:36:00;;;;;;;34.77;22.60;;;;;;;;;;6139308;23;20159;-81
2023/03/03 13:39:12;;;;;;;38.43;22.57;;;;;;;;;;6122801;23;20154;-82
2023/03/03 13:42:28;;;;;;;24.60;16.73;;;;;;;;;;6139729;23;20162;-84
2023/03/03 13:45:56;;;;;;;34.70;19.23;;;;;;;;;;6122199;23;20614;-84
2023/03/03 13:49:42;;;;;;;36.40;21.43;;;;;;;;;;6122348;23;20163;-84
2023/03/03 13:53:19;;;;;;;31.07;21.77;;;;;;;;;;6121377;23;20161;-83
2023/03/03 13:56:30;;;;;;;33.17;21.27;;;;;;;;;;6121518;23;20480;-83
2023/03/03 13:59:42;;;;;;;29.80;19.20;;;;;;;;;;6121668;23;20151;-82
2023/03/03 14:03:37;;;;;;;36.17;21.67;;;;;;;;;;6138220;23;20155;-83
2023/03/03 14:06:54;;;;;;;31.23;21.70;;;;;;;;;;6128193;23;20177;-81
2023/03/03 14:10:24;;;;;;;35.70;23.03;;;;;;;;;;6132397;23;20184;-81
2023/03/03 14:13:46;;;;;;;33.73;23.00;;;;;;;;;;6138992;23;20164;-80
2023/03/03 14:17:08;;;;;;;32.50;21.30;;;;;;;;;;6136410;23;20523;-79
2023/03/03 14:20:30;;;;;;;38.37;23.50;;;;;;;;;;6155249;23;20483;-79
2023/03/03 14:23:47;;;;;;;35.97;22.50;;;;;;;;;;6120824;23;20154;-78
2023/03/03 14:26:54;;;;;;;32.67;22.17;;;;;;;;;;6144452;23;20202;-80
2023/03/03 14:29:58;;;;;;;34.77;22.87;;;;;;;;;;6135867;23;20182;-79
2023/03/03 14:33:08;;;;;;;32.60;22.37;;;;;;;;;;6127950;23;20162;-80
2023/03/03 14:36:15;;;;;;;35.63;22.50;;;;;;;;;;6127845;23;20169;-80
2023/03/03 14:39:32;;;;;;;34.97;22.13;;;;;;;;;;6144973;23;20165;-80
2023/03/03 14:42:52;;;;;;;33.73;22.60;;;;;;;;;;6145239;23;20210;-81
2023/03/03 14:46:14;;;;;;;29.97;21.13;;;;;;;;;;6152866;23;20159;-82
2023/03/03 14:49:30;;;;;;;32.70;21.27;;;;;;;;;;6136730;23;20161;-81
2023/03/03 14:52:36;;;;;;;36.83;21.73;;;;;;;;;;6135376;23;20159;-81
2023/03/03 14:55:43;;;;;;;35.23;21.93;;;;;;;;;;6151660;23;20513;-82
2023/03/03 14:58:48;;;;;;;32.50;21.33;;;;;;;;;;6144499;23;20186;-80
2023/03/03 15:02:01;;;;;;;35.40;20.77;;;;;;;;;;6136861;23;20147;-80
2023/03/03 15:05:19;;;;;;;32.13;21.07;;;;;;;;;;6126284;23;20173;-80
2023/03/03 15:08:35;;;;;;;33.63;21.73;;;;;;;;;;6123313;23;20186;-80
2023/03/03 15:11:39;;;;;;;34.40;21.53;;;;;;;;;;6140236;23;20535;-80
2023/03/03 15:14:46;;;;;;;34.40;21.77;;;;;;;;;;6133137;23;20163;-80
2023/03/03 15:18:01;;;;;;;34.43;21.33;;;;;;;;;;6143133;23;20198;-80
2023/03/03 15:21:13;;;;;;;37.10;21.47;;;;;;;;;;6129982;23;20157;-80
2023/03/03 15:24:27;;;;;;;35.90;22.50;;;;;;;;;;6127047;23;20154;-81
2023/03/03 15:28:05;;;;;;;30.47;20.93;;;;;;;;;;6143401;23;20194;-80
2023/03/03 15:31:29;;;;;;;30.33;21.07;;;;;;;;;;6151138;23;20198;-81
2023/03/03 15:34:42;;;;;;;31.47;20.17;;;;;;;;;;6152427;23;20480;-80
2023/03/03 15:37:55;;;;;;;36.10;21.37;;;;;;;;;;6128693;23;20200;-79
2023/03/03 15:41:28;;;;;;;33.60;21.93;;;;;;;;;;6125791;23;20166;-80
2023/03/03 15:45:05;;;;;;;37.30;21.57;;;;;;;;;;6137862;23;20215;-79
2023/03/03 15:48:25;;;;;;;35.67;21.07;;;;;;;;;;6131393;23;20186;-79
2023/03/03 15:52:04;;;;;;;61.20;38.20;;;;;;;;;;6139078;23;20238;-81
2023/03/03 15:55:39;;;;;;;34.37;21.93;;;;;;;;;;6155022;23;20167;-80
2023/03/03 15:59:18;;;;;;;40.10;25.63;;;;;;;;;;6145688;23;20186;-80
2023/03/03 16:02:30;;;;;;;38.37;23.00;;;;;;;;;;6146574;23;20166;-80
2023/03/03 16:05:38;;;;;;;35.27;21.77;;;;;;;;;;6137971;23;20154;-80
2023/03/03 16:09:04;;;;;;;35.80;22.30;;;;;;;;;;6125107;23;20190;-81
2023/03/03 16:12:28;;;;;;;39.13;22.30;;;;;;;;;;6107877;23;20187;-80
2023/03/03 16:15:58;;;;;;;36.57;22.33;;;;;;;;;;6090440;23;20156;-80
2023/03/03 16:19:30;;;;;;;34.00;21.80;;;;;;;;;;6092123;23;20155;-80
2023/03/03 16:22:48;;;;;;;40.53;21.57;;;;;;;;;;6090509;23;20155;-81
2023/03/03 16:26:31;;;;;;;36.87;22.17;;;;;;;;;;6115472;23;20159;-80
2023/03/03 16:30:05;;;;;;;41.70;23.87;;;;;;;;;;6077134;23;20171;-80
2023/03/03 16:33:12;;;;;;;38.10;22.57;;;;;;;;;;6097441;23;20159;-79
2023/03/03 16:36:16;;;;;;;43.70;23.67;;;;;;;;;;6079908;23;20462;-80
2023/03/03 16:40:02;;;;;;;36.20;20.93;;;;;;;;;;6088700;23;20488;-82
2023/03/03 16:43:13;;;;;;;40.20;21.87;;;;;;;;;;6081609;23;20164;-80
2023/03/03 16:46:40;;;;;;;34.40;21.40;;;;;;;;;;6088377;23;20155;-79
2023/03/03 16:50:02;;;;;;;33.53;19.63;;;;;;;;;;6106652;23;20155;-80
2023/03/03 16:53:41;;;;;;;36.03;20.47;;;;;;;;;;6087632;23;20155;-80
2023/03/03 16:57:17;;;;;;;40.40;20.20;;;;;;;;;;6086335;23;20191;-80
2023/03/03 17:00:27;;;;;;;34.13;20.10;;;;;;;;;;6087451;23;20155;-79
2023/03/03 17:03:56;;;;;;;31.23;19.63;;;;;;;;;;6086836;23;20147;-79
2023/03/03 17:07:14;;;;;;;34.90;21.37;;;;;;;;;;6080468;23;20186;-79
2023/03/03 17:10:27;;;;;;;30.93;19.93;;;;;;;;;;6125985;23;20174;-79
2023/03/03 17:13:59;;;;;;;40.20;23.93;;;;;;;;;;6120793;23;20170;-80
2023/03/03 17:17:20;;;;;;;39.20;22.57;;;;;;;;;;6126049;23;20198;-80
2023/03/03 17:20:59;;;;;;;34.17;20.97;;;;;;;;;;6148134;23;20158;-80
2023/03/03 17:24:18;;;;;;;37.27;23.03;;;;;;;;;;6125538;23;20484;-81
2023/03/03 17:27:45;;;;;;;38.33;22.27;;;;;;;;;;6130600;23;20194;-81
2023/03/03 17:31:19;;;;;;;37.40;22.70;;;;;;;;;;6152945;23;20155;-80
2023/03/03 17:34:47;;;;;;;41.60;26.40;;;;;;;;;;6133738;23;20158;-81
2023/03/03 17:38:09;;;;;;;39.93;23.73;;;;;;;;;;6130607;23;20194;-80
2023/03/03 17:41:32;;;;;;;44.07;22.50;;;;;;;;;;6149791;23;20159;-81
2023/03/03 17:45:03;;;;;;;39.77;22.30;;;;;;;;;;6133998;23;20159;-81
2023/03/03 17:48:30;;;;;;;38.37;22.90;;;;;;;;;;6124151;23;20194;-81
2023/03/03 17:51:54;;;;;;;41.93;22.30;;;;;;;;;;6128822;23;20186;-81
2023/03/03 17:55:26;;;;;;;37.63;23.03;;;;;;;;;;6128023;23;20155;-81
2023/03/03 17:58:45;;;;;;;38.30;22.27;;;;;;;;;;6119709;23;20485;-80
2023/03/03 18:02:17;;;;;;;36.73;22.33;;;;;;;;;;6127460;23;20465;-79
2023/03/03 18:05:28;;;;;;;46.37;23.53;;;;;;;;;;6157069;23;20154;-79
2023/03/03 18:09:02;;;;;;;35.13;23.07;;;;;;;;;;6130731;23;20190;-79
2023/03/03 18:12:42;;;;;;;36.73;23.53;;;;;;;;;;6085426;23;20203;-79
2023/03/03 18:16:16;;;;;;;37.43;22.00;;;;;;;;;;6095017;23;20159;-79
2023/03/03 18:19:32;;;;;;;38.63;22.77;;;;;;;;;;6112617;23;20159;-80
2023/03/03 18:22:42;;;;;;;36.27;22.07;;;;;;;;;;6078975;23;20462;-81
2023/03/03 18:26:20;;;;;;;40.10;23.60;;;;;;;;;;6078665;23;20569;-82
2023/03/03 18:29:26;;;;;;;41.87;24.33;;;;;;;;;;6096623;23;20163;-80
2023/03/03 18:32:41;;;;;;;44.80;24.57;;;;;;;;;;6085207;23;20198;-80
2023/03/03 18:35:46;;;;;;;43.17;23.07;;;;;;;;;;6078273;23;20600;-81
2023/03/03 18:38:52;;;;;;;39.83;22.87;;;;;;;;;;6077716;23;20159;-81
2023/03/03 18:42:09;;;;;;;45.03;24.60;;;;;;;;;;6094633;23;20147;-81
2023/03/03 18:45:33;;;;;;;42.40;24.37;;;;;;;;;;6094648;23;20455;-80
2023/03/03 18:49:08;;;;;;;42.20;24.67;;;;;;;;;;6105626;23;20656;-82
2023/03/03 18:52:20;;;;;;;48.60;25.87;;;;;;;;;;6096007;23;20186;-81
2023/03/03 18:55:25;;;;;;;43.20;24.43;;;;;;;;;;6096691;23;20159;-82
2023/03/03 18:58:38;;;;;;;38.07;23.83;;;;;;;;;;6069535;23;20652;-80
2023/03/03 19:01:43;;;;;;;40.53;23.53;;;;;;;;;;6094713;23;20151;-79
2023/03/03 19:05:17;;;;;;;44.03;24.80;;;;;;;;;;6084926;23;20171;-79
2023/03/03 19:08:27;;;;;;;45.87;24.40;;;;;;;;;;6087837;23;20194;-80
2023/03/03 19:11:51;;;;;;;44.10;25.13;;;;;;;;;;6069881;23;20624;-81
2023/03/03 19:14:55;;;;;;;41.97;24.13;;;;;;;;;;6105690;23;20608;-79
2023/03/03 19:18:24;;;;;;;44.20;24.33;;;;;;;;;;6075557;23;20643;-79